LLHALLET

Guest
Details From LLHA - Haifa
To LLET - EILAT
Flight Number -
Tags generated
Created
Modified
Stats Distance 196 nm / 363 km
Max Altitude 24,700 ft / 7,529 m
Waypoints 4
Social Downloads 1
Likes 0
Share VATSIM

Download

Looking for another format? Having issues loading an existing format? Contact us
Advertisement - Login to hide

Notes

Basic altitude profile: - Ascent Rate: 1300ft/min - Ascent Speed: 280kts - Cruise Altitude: 22000ft - Cruise Speed: 280kts - Descent Rate: 1500ft/min - Descent Speed: 220kts Options: - Use NATs: yes - Use PACOTS: yes - Use low airways: no - Use high airways: yes

Route

LLHA GILAD J13 BOGER LLET

ID Type Via Altitude Latitude Longitude Leg Dist Tot Dist Heading (true) Name
O LLHA APT - 0 ft / 0 m 32.81113˚ 35.04414˚ - 0 nm - Haifa
GILAD FIX - 24,700 ft / 7,529 m 31.48144˚ 34.85273˚ 80 nm 80 nm 187° / 187° -
BOGER FIX J13 (AWY-HI) 17,600 ft / 5,364 m 30.93254˚ 34.93246˚ 33 nm 113 nm 173° / 173° -
O LLET APT - 0 ft / 0 m 29.56127˚ 34.96011˚ 82 nm 196 nm 179° / 179° EILAT

Altitude Profile

Advertisement - Login to hide

Weather


0- 5 10 15 20 25 30 35+ Temperature / ° C

Clouds and Precipitation
Forecast for 2017-12-14 12:00 UTC. Updated an hour ago

Ground ~20,000 ft ~40,000 ft Winds

LLHA

Details ICAO LLHA (HFA)
Name Haifa
Region Israel
Timezone Asia/Jerusalem (UTC+2.0)
Stats Elevation 28 ft / 9 m (AMSL)
Location 32.811125° 35.044139°
Runways 1
Magnetic Variation 4.781° E

METAR

LLHA 140950Z 30006KT 9999 SCT030 20/13 Q1018

Decode

TAF

TAF LLHA 140512Z 1406/1506 VRB04KT 9999 SCT035 BKN050 BECMG 1407/1409 29008KT TX20/1412Z TN15/1504Z

Decode

Departure Runways

ID Width Length Bearing (true) Bearing (mag) Surface Threshold Offset Overrun Length
16 98 ft / 30 m 4,161 ft / 1,268 m 158.88° 154.10° Asphalt 164 ft / 50 m 0 ft / 0 m
34 98 ft / 30 m 4,161 ft / 1,268 m 338.88° 334.10° Asphalt 380 ft / 116 m 90 ft / 27 m

LLET

Details ICAO LLET (ETH)
Name EILAT
Region Israel
Timezone Asia/Jerusalem (UTC+2.0)
Stats Elevation 42 ft / 13 m (AMSL)
Location 29.561268° 34.960111°
Runways 1
Magnetic Variation 4.430° E

METAR

LLET 140950Z 01013KT CAVOK 22/08 Q1019 RMK FEW060

Decode

TAF

TAF LLET 140506Z 1406/1506 01008KT 9999 SCT050 BECMG 1407/1409 02012KT FEW045 BECMG 1418/1420 35008KT TX25/1412Z TN13/1504Z

Decode

Destination Runways

ID Width Length Bearing (true) Bearing (mag) Surface Threshold Offset Overrun Length
03 89 ft / 27 m 6,249 ft / 1,905 m 27.93° 23.50° Asphalt 945 ft / 288 m 125 ft / 38 m
21 89 ft / 27 m 6,249 ft / 1,905 m 207.93° 203.50° Asphalt 0 ft / 0 m 0 ft / 0 m

Popular Alternatives